sensor_id;sensor_type;location;lat;lon;timestamp;P1;durP1;ratioP1;P2;durP2;ratioP2
57067;SDS011;43391;47.448;18.904;2022-10-16T00:01:17;16.23;;;9.57;;
57067;SDS011;43391;47.448;18.904;2022-10-16T00:03:44;15.88;;;9.63;;
57067;SDS011;43391;47.448;18.904;2022-10-16T00:06:11;17.98;;;9.50;;
57067;SDS011;43391;47.448;18.904;2022-10-16T00:08:38;17.13;;;10.68;;
57067;SDS011;43391;47.448;18.904;2022-10-16T00:11:08;16.70;;;10.20;;
57067;SDS011;43391;47.448;18.904;2022-10-16T00:13:36;18.25;;;10.77;;
57067;SDS011;43391;47.448;18.904;2022-10-16T00:16:03;13.68;;;10.45;;
57067;SDS011;43391;47.448;18.904;2022-10-16T00:18:30;13.95;;;9.75;;
57067;SDS011;43391;47.448;18.904;2022-10-16T00:20:55;14.20;;;10.05;;
57067;SDS011;43391;47.448;18.904;2022-10-16T00:23:26;16.67;;;10.07;;
57067;SDS011;43391;47.448;18.904;2022-10-16T00:25:55;18.70;;;10.50;;
57067;SDS011;43391;47.448;18.904;2022-10-16T00:28:22;17.15;;;10.27;;
57067;SDS011;43391;47.448;18.904;2022-10-16T00:30:47;13.00;;;9.98;;
57067;SDS011;43391;47.448;18.904;2022-10-16T00:33:12;15.80;;;9.50;;
57067;SDS011;43391;47.448;18.904;2022-10-16T00:35:38;12.82;;;8.88;;
57067;SDS011;43391;47.448;18.904;2022-10-16T00:38:03;11.57;;;9.55;;
57067;SDS011;43391;47.448;18.904;2022-10-16T00:40:29;14.77;;;9.75;;
57067;SDS011;43391;47.448;18.904;2022-10-16T00:42:54;12.40;;;9.45;;
57067;SDS011;43391;47.448;18.904;2022-10-16T00:45:20;17.55;;;9.73;;
57067;SDS011;43391;47.448;18.904;2022-10-16T00:47:45;15.52;;;9.20;;
57067;SDS011;43391;47.448;18.904;2022-10-16T00:53:00;15.32;;;9.85;;
57067;SDS011;43391;47.448;18.904;2022-10-16T00:55:27;15.40;;;9.80;;
57067;SDS011;43391;47.448;18.904;2022-10-16T00:57:55;16.00;;;9.90;;
57067;SDS011;43391;47.448;18.904;2022-10-16T01:00:23;15.55;;;9.68;;
57067;SDS011;43391;47.448;18.904;2022-10-16T01:02:57;14.25;;;9.98;;
57067;SDS011;43391;47.448;18.904;2022-10-16T01:05:33;14.52;;;9.60;;
57067;SDS011;43391;47.448;18.904;2022-10-16T01:08:12;15.65;;;9.50;;
57067;SDS011;43391;47.448;18.904;2022-10-16T01:10:45;14.45;;;9.30;;
57067;SDS011;43391;47.448;18.904;2022-10-16T01:13:27;15.63;;;9.73;;
57067;SDS011;43391;47.448;18.904;2022-10-16T01:16:01;16.67;;;10.07;;
57067;SDS011;43391;47.448;18.904;2022-10-16T01:21:01;16.70;;;10.10;;
57067;SDS011;43391;47.448;18.904;2022-10-16T01:26:20;17.77;;;10.15;;
57067;SDS011;43391;47.448;18.904;2022-10-16T01:29:03;15.15;;;10.07;;
57067;SDS011;43391;47.448;18.904;2022-10-16T01:31:36;17.38;;;9.93;;
57067;SDS011;43391;47.448;18.904;2022-10-16T01:34:12;13.75;;;9.75;;
57067;SDS011;43391;47.448;18.904;2022-10-16T01:36:47;16.23;;;8.88;;
57067;SDS011;43391;47.448;18.904;2022-10-16T01:39:18;14.88;;;9.82;;
57067;SDS011;43391;47.448;18.904;2022-10-16T01:41:49;14.20;;;8.98;;
57067;SDS011;43391;47.448;18.904;2022-10-16T01:44:21;14.38;;;9.50;;
57067;SDS011;43391;47.448;18.904;2022-10-16T01:46:52;13.52;;;9.88;;
57067;SDS011;43391;47.448;18.904;2022-10-16T01:49:19;13.48;;;9.45;;
57067;SDS011;43391;47.448;18.904;2022-10-16T01:54:15;14.35;;;10.00;;
57067;SDS011;43391;47.448;18.904;2022-10-16T01:56:43;18.27;;;10.67;;
57067;SDS011;43391;47.448;18.904;2022-10-16T01:59:11;14.20;;;9.90;;
57067;SDS011;43391;47.448;18.904;2022-10-16T02:01:39;13.45;;;9.23;;
57067;SDS011;43391;47.448;18.904;2022-10-16T02:04:20;18.35;;;10.52;;
57067;SDS011;43391;47.448;18.904;2022-10-16T02:06:49;11.50;;;9.13;;
57067;SDS011;43391;47.448;18.904;2022-10-16T02:09:15;13.57;;;9.77;;
57067;SDS011;43391;47.448;18.904;2022-10-16T02:11:42;14.98;;;10.23;;
57067;SDS011;43391;47.448;18.904;2022-10-16T02:14:08;15.63;;;9.90;;
57067;SDS011;43391;47.448;18.904;2022-10-16T02:16:43;14.48;;;9.52;;
57067;SDS011;43391;47.448;18.904;2022-10-16T02:19:11;12.63;;;9.75;;
57067;SDS011;43391;47.448;18.904;2022-10-16T02:21:40;11.30;;;9.33;;
57067;SDS011;43391;47.448;18.904;2022-10-16T02:26:37;12.27;;;9.40;;
57067;SDS011;43391;47.448;18.904;2022-10-16T02:29:14;15.45;;;9.75;;
57067;SDS011;43391;47.448;18.904;2022-10-16T02:31:45;13.25;;;9.85;;
57067;SDS011;43391;47.448;18.904;2022-10-16T02:34:16;15.18;;;9.80;;
57067;SDS011;43391;47.448;18.904;2022-10-16T02:36:43;14.35;;;10.77;;
57067;SDS011;43391;47.448;18.904;2022-10-16T02:39:10;13.73;;;9.80;;
57067;SDS011;43391;47.448;18.904;2022-10-16T02:41:36;13.02;;;10.00;;
57067;SDS011;43391;47.448;18.904;2022-10-16T02:44:02;15.80;;;10.02;;
57067;SDS011;43391;47.448;18.904;2022-10-16T02:46:27;15.40;;;10.70;;
57067;SDS011;43391;47.448;18.904;2022-10-16T02:48:53;16.92;;;10.98;;
57067;SDS011;43391;47.448;18.904;2022-10-16T02:51:18;13.20;;;10.32;;
57067;SDS011;43391;47.448;18.904;2022-10-16T02:53:43;17.98;;;11.07;;
57067;SDS011;43391;47.448;18.904;2022-10-16T02:56:09;16.15;;;10.40;;
57067;SDS011;43391;47.448;18.904;2022-10-16T02:58:34;16.90;;;11.07;;
57067;SDS011;43391;47.448;18.904;2022-10-16T03:01:00;15.10;;;10.55;;
57067;SDS011;43391;47.448;18.904;2022-10-16T03:03:25;16.25;;;10.35;;
57067;SDS011;43391;47.448;18.904;2022-10-16T03:05:50;17.10;;;11.15;;
57067;SDS011;43391;47.448;18.904;2022-10-16T03:08:16;19.10;;;11.05;;
57067;SDS011;43391;47.448;18.904;2022-10-16T03:10:41;17.63;;;11.60;;
57067;SDS011;43391;47.448;18.904;2022-10-16T03:13:06;16.00;;;11.20;;
57067;SDS011;43391;47.448;18.904;2022-10-16T03:15:32;17.27;;;11.23;;
57067;SDS011;43391;47.448;18.904;2022-10-16T03:17:57;16.70;;;11.02;;
57067;SDS011;43391;47.448;18.904;2022-10-16T03:20:24;18.40;;;11.50;;
57067;SDS011;43391;47.448;18.904;2022-10-16T03:22:49;20.92;;;11.85;;
57067;SDS011;43391;47.448;18.904;2022-10-16T03:25:15;15.27;;;10.20;;
57067;SDS011;43391;47.448;18.904;2022-10-16T03:27:40;15.43;;;11.00;;
57067;SDS011;43391;47.448;18.904;2022-10-16T03:30:06;13.05;;;10.45;;
57067;SDS011;43391;47.448;18.904;2022-10-16T03:32:32;16.20;;;11.27;;
57067;SDS011;43391;47.448;18.904;2022-10-16T03:34:57;17.52;;;11.43;;
57067;SDS011;43391;47.448;18.904;2022-10-16T03:37:23;16.33;;;11.43;;
57067;SDS011;43391;47.448;18.904;2022-10-16T03:39:48;15.02;;;11.32;;
57067;SDS011;43391;47.448;18.904;2022-10-16T03:42:14;18.15;;;12.18;;
57067;SDS011;43391;47.448;18.904;2022-10-16T03:44:39;18.23;;;12.18;;
57067;SDS011;43391;47.448;18.904;2022-10-16T03:47:04;15.20;;;11.30;;
57067;SDS011;43391;47.448;18.904;2022-10-16T03:49:30;23.38;;;12.30;;
57067;SDS011;43391;47.448;18.904;2022-10-16T03:51:55;14.63;;;11.05;;
57067;SDS011;43391;47.448;18.904;2022-10-16T03:54:20;16.20;;;11.10;;
57067;SDS011;43391;47.448;18.904;2022-10-16T03:56:47;17.90;;;10.38;;
57067;SDS011;43391;47.448;18.904;2022-10-16T03:59:12;18.75;;;14.32;;
57067;SDS011;43391;47.448;18.904;2022-10-16T04:01:38;21.05;;;12.45;;
57067;SDS011;43391;47.448;18.904;2022-10-16T04:04:03;17.70;;;11.90;;
57067;SDS011;43391;47.448;18.904;2022-10-16T04:06:29;18.58;;;12.35;;
57067;SDS011;43391;47.448;18.904;2022-10-16T04:08:54;16.42;;;10.80;;
57067;SDS011;43391;47.448;18.904;2022-10-16T04:11:19;18.05;;;11.88;;
57067;SDS011;43391;47.448;18.904;2022-10-16T04:13:45;17.73;;;12.32;;
57067;SDS011;43391;47.448;18.904;2022-10-16T04:16:10;19.75;;;12.65;;
57067;SDS011;43391;47.448;18.904;2022-10-16T04:18:35;14.70;;;12.30;;
57067;SDS011;43391;47.448;18.904;2022-10-16T04:21:04;17.70;;;12.32;;
57067;SDS011;43391;47.448;18.904;2022-10-16T04:23:30;17.58;;;12.40;;
57067;SDS011;43391;47.448;18.904;2022-10-16T04:25:56;18.17;;;12.77;;
57067;SDS011;43391;47.448;18.904;2022-10-16T04:28:21;19.00;;;12.25;;
57067;SDS011;43391;47.448;18.904;2022-10-16T04:30:46;19.38;;;12.05;;
57067;SDS011;43391;47.448;18.904;2022-10-16T04:33:12;16.60;;;12.57;;
57067;SDS011;43391;47.448;18.904;2022-10-16T04:35:38;23.45;;;12.00;;
57067;SDS011;43391;47.448;18.904;2022-10-16T04:38:03;20.33;;;12.80;;
57067;SDS011;43391;47.448;18.904;2022-10-16T04:40:29;17.33;;;12.75;;
57067;SDS011;43391;47.448;18.904;2022-10-16T04:42:57;18.60;;;12.00;;
57067;SDS011;43391;47.448;18.904;2022-10-16T04:45:24;19.38;;;12.65;;
57067;SDS011;43391;47.448;18.904;2022-10-16T04:47:49;15.95;;;12.13;;
57067;SDS011;43391;47.448;18.904;2022-10-16T04:50:15;21.48;;;12.55;;
57067;SDS011;43391;47.448;18.904;2022-10-16T04:52:40;17.13;;;12.40;;
57067;SDS011;43391;47.448;18.904;2022-10-16T04:55:05;17.13;;;13.38;;
57067;SDS011;43391;47.448;18.904;2022-10-16T04:57:32;18.92;;;13.45;;
57067;SDS011;43391;47.448;18.904;2022-10-16T04:59:58;18.90;;;14.38;;
57067;SDS011;43391;47.448;18.904;2022-10-16T05:02:24;25.05;;;15.43;;
57067;SDS011;43391;47.448;18.904;2022-10-16T05:04:50;19.40;;;14.57;;
57067;SDS011;43391;47.448;18.904;2022-10-16T05:07:15;20.52;;;14.27;;
57067;SDS011;43391;47.448;18.904;2022-10-16T05:09:40;17.63;;;14.13;;
57067;SDS011;43391;47.448;18.904;2022-10-16T05:12:06;17.80;;;13.52;;
57067;SDS011;43391;47.448;18.904;2022-10-16T05:14:31;20.88;;;15.55;;
57067;SDS011;43391;47.448;18.904;2022-10-16T05:16:56;22.50;;;14.27;;
57067;SDS011;43391;47.448;18.904;2022-10-16T05:19:22;22.33;;;15.07;;
57067;SDS011;43391;47.448;18.904;2022-10-16T05:21:47;21.25;;;15.18;;
57067;SDS011;43391;47.448;18.904;2022-10-16T05:24:13;24.52;;;16.17;;
57067;SDS011;43391;47.448;18.904;2022-10-16T05:26:39;23.73;;;14.18;;
57067;SDS011;43391;47.448;18.904;2022-10-16T05:29:04;19.42;;;14.65;;
57067;SDS011;43391;47.448;18.904;2022-10-16T05:31:29;23.88;;;16.20;;
57067;SDS011;43391;47.448;18.904;2022-10-16T05:34:01;22.02;;;16.13;;
57067;SDS011;43391;47.448;18.904;2022-10-16T05:36:27;24.85;;;16.83;;
57067;SDS011;43391;47.448;18.904;2022-10-16T05:38:52;26.45;;;16.58;;
57067;SDS011;43391;47.448;18.904;2022-10-16T05:41:18;21.45;;;15.05;;
57067;SDS011;43391;47.448;18.904;2022-10-16T05:43:48;22.25;;;15.50;;
57067;SDS011;43391;47.448;18.904;2022-10-16T05:46:14;21.05;;;15.00;;
57067;SDS011;43391;47.448;18.904;2022-10-16T05:48:40;20.90;;;14.75;;
57067;SDS011;43391;47.448;18.904;2022-10-16T05:51:06;23.42;;;16.13;;
57067;SDS011;43391;47.448;18.904;2022-10-16T05:53:34;23.35;;;16.08;;
57067;SDS011;43391;47.448;18.904;2022-10-16T05:56:01;21.65;;;16.02;;
57067;SDS011;43391;47.448;18.904;2022-10-16T05:58:31;25.42;;;16.70;;
57067;SDS011;43391;47.448;18.904;2022-10-16T06:00:59;24.63;;;17.15;;
57067;SDS011;43391;47.448;18.904;2022-10-16T06:05:52;27.25;;;17.65;;
57067;SDS011;43391;47.448;18.904;2022-10-16T06:08:19;25.55;;;17.27;;
57067;SDS011;43391;47.448;18.904;2022-10-16T06:10:46;27.08;;;18.10;;
57067;SDS011;43391;47.448;18.904;2022-10-16T06:13:13;28.05;;;17.77;;
57067;SDS011;43391;47.448;18.904;2022-10-16T06:15:40;21.63;;;16.15;;
57067;SDS011;43391;47.448;18.904;2022-10-16T06:18:10;26.80;;;15.95;;
57067;SDS011;43391;47.448;18.904;2022-10-16T06:20:36;20.52;;;14.05;;
57067;SDS011;43391;47.448;18.904;2022-10-16T06:23:02;19.85;;;13.80;;
57067;SDS011;43391;47.448;18.904;2022-10-16T06:25:29;21.20;;;13.32;;
57067;SDS011;43391;47.448;18.904;2022-10-16T06:27:54;16.00;;;12.57;;
57067;SDS011;43391;47.448;18.904;2022-10-16T06:30:20;19.95;;;13.65;;
57067;SDS011;43391;47.448;18.904;2022-10-16T06:32:45;17.27;;;12.55;;
57067;SDS011;43391;47.448;18.904;2022-10-16T06:35:10;14.38;;;12.02;;
57067;SDS011;43391;47.448;18.904;2022-10-16T06:37:36;17.48;;;12.38;;
57067;SDS011;43391;47.448;18.904;2022-10-16T06:40:01;18.88;;;12.88;;
57067;SDS011;43391;47.448;18.904;2022-10-16T06:42:29;19.73;;;12.52;;
57067;SDS011;43391;47.448;18.904;2022-10-16T06:44:54;20.05;;;13.60;;
57067;SDS011;43391;47.448;18.904;2022-10-16T06:47:20;15.90;;;11.73;;
57067;SDS011;43391;47.448;18.904;2022-10-16T06:49:45;20.80;;;13.57;;
57067;SDS011;43391;47.448;18.904;2022-10-16T06:52:10;19.98;;;12.85;;
57067;SDS011;43391;47.448;18.904;2022-10-16T06:54:36;19.90;;;12.75;;
57067;SDS011;43391;47.448;18.904;2022-10-16T06:57:01;16.95;;;11.88;;
57067;SDS011;43391;47.448;18.904;2022-10-16T06:59:26;18.45;;;13.00;;
57067;SDS011;43391;47.448;18.904;2022-10-16T07:01:52;19.65;;;13.07;;
57067;SDS011;43391;47.448;18.904;2022-10-16T07:04:17;20.02;;;11.55;;
57067;SDS011;43391;47.448;18.904;2022-10-16T07:06:43;14.30;;;11.90;;
57067;SDS011;43391;47.448;18.904;2022-10-16T07:09:09;19.00;;;12.32;;
57067;SDS011;43391;47.448;18.904;2022-10-16T07:11:36;23.00;;;12.80;;
57067;SDS011;43391;47.448;18.904;2022-10-16T07:14:02;12.57;;;10.85;;
57067;SDS011;43391;47.448;18.904;2022-10-16T07:16:29;16.00;;;11.88;;
57067;SDS011;43391;47.448;18.904;2022-10-16T07:18:57;15.75;;;12.40;;
57067;SDS011;43391;47.448;18.904;2022-10-16T07:21:25;16.58;;;11.18;;
57067;SDS011;43391;47.448;18.904;2022-10-16T07:23:52;15.55;;;11.50;;
57067;SDS011;43391;47.448;18.904;2022-10-16T07:26:18;15.30;;;11.35;;
57067;SDS011;43391;47.448;18.904;2022-10-16T07:28:43;14.07;;;10.32;;
57067;SDS011;43391;47.448;18.904;2022-10-16T07:31:13;20.25;;;11.60;;
57067;SDS011;43391;47.448;18.904;2022-10-16T07:33:40;16.40;;;11.23;;
57067;SDS011;43391;47.448;18.904;2022-10-16T07:36:07;16.98;;;11.88;;
57067;SDS011;43391;47.448;18.904;2022-10-16T07:38:32;18.50;;;12.20;;
57067;SDS011;43391;47.448;18.904;2022-10-16T07:43:27;16.15;;;10.77;;
57067;SDS011;43391;47.448;18.904;2022-10-16T07:45:53;13.88;;;10.70;;
57067;SDS011;43391;47.448;18.904;2022-10-16T07:48:20;17.85;;;11.88;;
57067;SDS011;43391;47.448;18.904;2022-10-16T07:50:47;16.38;;;10.93;;
57067;SDS011;43391;47.448;18.904;2022-10-16T07:53:12;14.73;;;10.82;;
57067;SDS011;43391;47.448;18.904;2022-10-16T07:55:39;14.98;;;10.43;;
57067;SDS011;43391;47.448;18.904;2022-10-16T07:58:05;21.80;;;11.40;;
57067;SDS011;43391;47.448;18.904;2022-10-16T08:00:30;18.10;;;11.05;;
57067;SDS011;43391;47.448;18.904;2022-10-16T08:02:57;15.73;;;10.73;;
57067;SDS011;43391;47.448;18.904;2022-10-16T08:05:25;16.17;;;10.60;;
57067;SDS011;43391;47.448;18.904;2022-10-16T08:07:54;16.35;;;11.18;;
57067;SDS011;43391;47.448;18.904;2022-10-16T08:10:22;15.63;;;10.75;;
57067;SDS011;43391;47.448;18.904;2022-10-16T08:12:49;14.38;;;10.30;;
57067;SDS011;43391;47.448;18.904;2022-10-16T08:15:15;14.15;;;10.48;;
57067;SDS011;43391;47.448;18.904;2022-10-16T08:17:40;15.27;;;11.65;;
57067;SDS011;43391;47.448;18.904;2022-10-16T08:20:06;14.40;;;10.50;;
57067;SDS011;43391;47.448;18.904;2022-10-16T08:22:32;15.95;;;11.05;;
57067;SDS011;43391;47.448;18.904;2022-10-16T08:24:57;14.02;;;10.60;;
57067;SDS011;43391;47.448;18.904;2022-10-16T08:27:23;13.43;;;10.05;;
57067;SDS011;43391;47.448;18.904;2022-10-16T08:29:48;18.83;;;9.93;;
57067;SDS011;43391;47.448;18.904;2022-10-16T08:32:14;16.23;;;10.77;;
57067;SDS011;43391;47.448;18.904;2022-10-16T08:34:39;13.80;;;10.43;;
57067;SDS011;43391;47.448;18.904;2022-10-16T08:37:05;14.32;;;10.30;;
57067;SDS011;43391;47.448;18.904;2022-10-16T08:39:32;18.02;;;11.00;;
57067;SDS011;43391;47.448;18.904;2022-10-16T08:42:02;16.08;;;10.93;;
57067;SDS011;43391;47.448;18.904;2022-10-16T08:48:17;19.27;;;11.30;;
57067;SDS011;43391;47.448;18.904;2022-10-16T08:50:35;19.33;;;10.60;;
57067;SDS011;43391;47.448;18.904;2022-10-16T08:53:03;15.30;;;10.65;;
57067;SDS011;43391;47.448;18.904;2022-10-16T08:55:37;16.80;;;11.00;;
57067;SDS011;43391;47.448;18.904;2022-10-16T08:58:11;13.45;;;10.55;;
57067;SDS011;43391;47.448;18.904;2022-10-16T09:00:37;14.55;;;10.13;;
57067;SDS011;43391;47.448;18.904;2022-10-16T09:03:06;15.65;;;10.43;;
57067;SDS011;43391;47.448;18.904;2022-10-16T09:10:56;20.48;;;10.55;;
57067;SDS011;43391;47.448;18.904;2022-10-16T09:13:39;14.43;;;10.40;;
57067;SDS011;43391;47.448;18.904;2022-10-16T09:16:34;13.90;;;10.48;;
57067;SDS011;43391;47.448;18.904;2022-10-16T09:19:12;13.27;;;9.90;;
57067;SDS011;43391;47.448;18.904;2022-10-16T09:21:44;17.40;;;9.93;;
57067;SDS011;43391;47.448;18.904;2022-10-16T09:24:12;23.80;;;11.23;;
57067;SDS011;43391;47.448;18.904;2022-10-16T09:26:40;14.93;;;9.93;;
57067;SDS011;43391;47.448;18.904;2022-10-16T09:29:09;15.75;;;10.57;;
57067;SDS011;43391;47.448;18.904;2022-10-16T09:31:37;17.48;;;10.43;;
57067;SDS011;43391;47.448;18.904;2022-10-16T09:34:02;17.02;;;10.90;;
57067;SDS011;43391;47.448;18.904;2022-10-16T09:36:39;16.60;;;10.82;;
57067;SDS011;43391;47.448;18.904;2022-10-16T09:39:08;17.73;;;10.30;;
57067;SDS011;43391;47.448;18.904;2022-10-16T09:41:37;15.95;;;10.05;;
57067;SDS011;43391;47.448;18.904;2022-10-16T09:44:05;19.98;;;10.70;;
57067;SDS011;43391;47.448;18.904;2022-10-16T09:46:42;14.52;;;10.80;;
57067;SDS011;43391;47.448;18.904;2022-10-16T09:49:19;18.35;;;10.27;;
57067;SDS011;43391;47.448;18.904;2022-10-16T09:51:45;21.88;;;10.18;;
57067;SDS011;43391;47.448;18.904;2022-10-16T09:54:15;14.10;;;10.07;;
57067;SDS011;43391;47.448;18.904;2022-10-16T09:56:41;19.13;;;10.93;;
57067;SDS011;43391;47.448;18.904;2022-10-16T10:01:36;14.52;;;10.45;;
57067;SDS011;43391;47.448;18.904;2022-10-16T10:04:03;14.50;;;9.68;;
57067;SDS011;43391;47.448;18.904;2022-10-16T10:06:32;13.90;;;10.25;;
57067;SDS011;43391;47.448;18.904;2022-10-16T10:09:02;14.20;;;9.75;;
57067;SDS011;43391;47.448;18.904;2022-10-16T10:14:26;16.42;;;9.75;;
57067;SDS011;43391;47.448;18.904;2022-10-16T10:19:29;13.00;;;9.43;;
57067;SDS011;43391;47.448;18.904;2022-10-16T10:21:54;15.38;;;10.27;;
57067;SDS011;43391;47.448;18.904;2022-10-16T10:24:20;15.38;;;10.10;;
57067;SDS011;43391;47.448;18.904;2022-10-16T10:26:49;13.43;;;9.00;;
57067;SDS011;43391;47.448;18.904;2022-10-16T10:29:56;12.65;;;8.77;;
57067;SDS011;43391;47.448;18.904;2022-10-16T10:32:31;12.07;;;9.10;;
57067;SDS011;43391;47.448;18.904;2022-10-16T10:35:13;15.35;;;8.70;;
57067;SDS011;43391;47.448;18.904;2022-10-16T10:40:39;15.00;;;8.20;;
57067;SDS011;43391;47.448;18.904;2022-10-16T10:45:55;13.65;;;7.97;;
57067;SDS011;43391;47.448;18.904;2022-10-16T10:51:20;12.45;;;7.70;;
57067;SDS011;43391;47.448;18.904;2022-10-16T10:54:22;11.50;;;7.85;;
57067;SDS011;43391;47.448;18.904;2022-10-16T11:08:02;12.20;;;7.57;;
57067;SDS011;43391;47.448;18.904;2022-10-16T11:10:40;11.27;;;7.55;;
57067;SDS011;43391;47.448;18.904;2022-10-16T11:13:15;14.80;;;7.65;;
57067;SDS011;43391;47.448;18.904;2022-10-16T11:15:47;10.05;;;7.10;;
57067;SDS011;43391;47.448;18.904;2022-10-16T11:18:18;13.15;;;6.75;;
57067;SDS011;43391;47.448;18.904;2022-10-16T11:21:01;12.38;;;6.60;;
57067;SDS011;43391;47.448;18.904;2022-10-16T11:23:38;10.13;;;6.60;;
57067;SDS011;43391;47.448;18.904;2022-10-16T11:26:09;10.80;;;6.97;;
57067;SDS011;43391;47.448;18.904;2022-10-16T11:28:49;8.73;;;5.80;;
57067;SDS011;43391;47.448;18.904;2022-10-16T11:36:42;11.95;;;6.45;;
57067;SDS011;43391;47.448;18.904;2022-10-16T11:41:47;8.90;;;6.65;;
57067;SDS011;43391;47.448;18.904;2022-10-16T11:44:31;10.77;;;6.38;;
57067;SDS011;43391;47.448;18.904;2022-10-16T11:47:05;8.25;;;6.15;;
57067;SDS011;43391;47.448;18.904;2022-10-16T11:49:41;10.93;;;6.45;;
57067;SDS011;43391;47.448;18.904;2022-10-16T11:52:18;10.68;;;5.93;;
57067;SDS011;43391;47.448;18.904;2022-10-16T11:54:55;7.85;;;6.10;;
57067;SDS011;43391;47.448;18.904;2022-10-16T11:57:27;9.45;;;5.95;;
57067;SDS011;43391;47.448;18.904;2022-10-16T11:59:58;14.30;;;5.68;;
57067;SDS011;43391;47.448;18.904;2022-10-16T12:02:35;9.32;;;5.47;;
57067;SDS011;43391;47.448;18.904;2022-10-16T12:05:18;9.27;;;5.60;;
57067;SDS011;43391;47.448;18.904;2022-10-16T12:07:59;9.35;;;5.90;;
57067;SDS011;43391;47.448;18.904;2022-10-16T12:10:32;10.68;;;5.50;;
57067;SDS011;43391;47.448;18.904;2022-10-16T12:13:02;9.50;;;5.97;;
57067;SDS011;43391;47.448;18.904;2022-10-16T12:15:29;8.38;;;6.43;;
57067;SDS011;43391;47.448;18.904;2022-10-16T12:17:56;13.23;;;5.82;;
57067;SDS011;43391;47.448;18.904;2022-10-16T12:20:29;17.10;;;10.75;;
57067;SDS011;43391;47.448;18.904;2022-10-16T12:23:06;44.00;;;30.42;;
57067;SDS011;43391;47.448;18.904;2022-10-16T12:25:35;9.95;;;5.97;;
57067;SDS011;43391;47.448;18.904;2022-10-16T12:28:17;11.00;;;6.18;;
57067;SDS011;43391;47.448;18.904;2022-10-16T12:30:54;9.73;;;6.93;;
57067;SDS011;43391;47.448;18.904;2022-10-16T12:33:32;8.98;;;6.20;;
57067;SDS011;43391;47.448;18.904;2022-10-16T12:35:59;11.18;;;6.15;;
57067;SDS011;43391;47.448;18.904;2022-10-16T12:38:30;7.50;;;6.10;;
57067;SDS011;43391;47.448;18.904;2022-10-16T12:41:04;8.45;;;5.82;;
57067;SDS011;43391;47.448;18.904;2022-10-16T12:48:39;11.93;;;8.02;;
57067;SDS011;43391;47.448;18.904;2022-10-16T12:51:10;14.80;;;9.48;;
57067;SDS011;43391;47.448;18.904;2022-10-16T12:53:37;12.00;;;6.80;;
57067;SDS011;43391;47.448;18.904;2022-10-16T12:56:04;10.02;;;7.00;;
57067;SDS011;43391;47.448;18.904;2022-10-16T13:07:01;8.68;;;5.78;;
57067;SDS011;43391;47.448;18.904;2022-10-16T13:12:33;8.23;;;5.68;;
57067;SDS011;43391;47.448;18.904;2022-10-16T13:15:24;9.90;;;5.68;;
57067;SDS011;43391;47.448;18.904;2022-10-16T13:23:38;10.68;;;6.20;;
57067;SDS011;43391;47.448;18.904;2022-10-16T13:29:01;9.27;;;6.13;;
57067;SDS011;43391;47.448;18.904;2022-10-16T13:31:27;10.65;;;5.50;;
57067;SDS011;43391;47.448;18.904;2022-10-16T13:33:54;9.07;;;5.90;;
57067;SDS011;43391;47.448;18.904;2022-10-16T13:36:34;11.07;;;6.00;;
57067;SDS011;43391;47.448;18.904;2022-10-16T13:42:02;8.38;;;5.50;;
57067;SDS011;43391;47.448;18.904;2022-10-16T13:44:28;9.55;;;6.20;;
57067;SDS011;43391;47.448;18.904;2022-10-16T13:47:00;9.38;;;6.00;;
57067;SDS011;43391;47.448;18.904;2022-10-16T13:49:26;10.35;;;6.38;;
57067;SDS011;43391;47.448;18.904;2022-10-16T13:51:55;9.95;;;6.15;;
57067;SDS011;43391;47.448;18.904;2022-10-16T13:54:22;9.75;;;6.25;;
57067;SDS011;43391;47.448;18.904;2022-10-16T13:56:48;8.93;;;5.32;;
57067;SDS011;43391;47.448;18.904;2022-10-16T14:01:53;10.02;;;5.90;;
57067;SDS011;43391;47.448;18.904;2022-10-16T14:04:21;10.52;;;6.25;;
57067;SDS011;43391;47.448;18.904;2022-10-16T14:06:49;10.02;;;6.28;;
57067;SDS011;43391;47.448;18.904;2022-10-16T14:12:29;8.82;;;5.28;;
57067;SDS011;43391;47.448;18.904;2022-10-16T14:14:40;10.68;;;6.07;;
57067;SDS011;43391;47.448;18.904;2022-10-16T14:17:43;9.27;;;5.68;;
57067;SDS011;43391;47.448;18.904;2022-10-16T14:20:03;10.45;;;5.47;;
57067;SDS011;43391;47.448;18.904;2022-10-16T14:22:34;11.65;;;7.15;;
57067;SDS011;43391;47.448;18.904;2022-10-16T14:27:59;11.00;;;7.68;;
57067;SDS011;43391;47.448;18.904;2022-10-16T14:30:27;15.60;;;6.43;;
57067;SDS011;43391;47.448;18.904;2022-10-16T14:32:55;11.00;;;6.20;;
57067;SDS011;43391;47.448;18.904;2022-10-16T14:35:27;10.30;;;5.75;;
57067;SDS011;43391;47.448;18.904;2022-10-16T14:37:54;10.60;;;6.03;;
57067;SDS011;43391;47.448;18.904;2022-10-16T14:40:28;10.63;;;6.15;;
57067;SDS011;43391;47.448;18.904;2022-10-16T14:42:55;6.93;;;5.25;;
57067;SDS011;43391;47.448;18.904;2022-10-16T14:45:23;12.88;;;6.15;;
57067;SDS011;43391;47.448;18.904;2022-10-16T14:47:52;9.80;;;7.03;;
57067;SDS011;43391;47.448;18.904;2022-10-16T14:50:20;11.75;;;6.65;;
57067;SDS011;43391;47.448;18.904;2022-10-16T14:52:46;13.80;;;6.60;;
57067;SDS011;43391;47.448;18.904;2022-10-16T14:55:11;8.85;;;5.97;;
57067;SDS011;43391;47.448;18.904;2022-10-16T14:57:37;9.93;;;6.70;;
57067;SDS011;43391;47.448;18.904;2022-10-16T15:00:09;10.82;;;6.40;;
57067;SDS011;43391;47.448;18.904;2022-10-16T15:02:43;15.10;;;7.22;;
57067;SDS011;43391;47.448;18.904;2022-10-16T15:05:16;8.02;;;6.18;;
57067;SDS011;43391;47.448;18.904;2022-10-16T15:07:42;9.82;;;6.85;;
57067;SDS011;43391;47.448;18.904;2022-10-16T15:10:08;11.05;;;6.38;;
57067;SDS011;43391;47.448;18.904;2022-10-16T15:12:34;10.80;;;6.32;;
57067;SDS011;43391;47.448;18.904;2022-10-16T15:15:00;19.58;;;8.05;;
57067;SDS011;43391;47.448;18.904;2022-10-16T15:17:25;12.32;;;8.27;;
57067;SDS011;43391;47.448;18.904;2022-10-16T15:19:50;11.80;;;7.20;;
57067;SDS011;43391;47.448;18.904;2022-10-16T15:22:16;16.30;;;7.35;;
57067;SDS011;43391;47.448;18.904;2022-10-16T15:24:42;10.88;;;6.32;;
57067;SDS011;43391;47.448;18.904;2022-10-16T15:27:08;11.25;;;6.47;;
57067;SDS011;43391;47.448;18.904;2022-10-16T15:29:33;19.42;;;7.28;;
57067;SDS011;43391;47.448;18.904;2022-10-16T15:31:58;16.23;;;8.30;;
57067;SDS011;43391;47.448;18.904;2022-10-16T15:34:24;12.75;;;7.75;;
57067;SDS011;43391;47.448;18.904;2022-10-16T15:36:49;11.20;;;6.70;;
57067;SDS011;43391;47.448;18.904;2022-10-16T15:39:16;12.30;;;7.85;;
57067;SDS011;43391;47.448;18.904;2022-10-16T15:44:10;14.85;;;9.32;;
57067;SDS011;43391;47.448;18.904;2022-10-16T15:46:35;16.52;;;10.85;;
57067;SDS011;43391;47.448;18.904;2022-10-16T15:49:02;18.65;;;10.05;;
57067;SDS011;43391;47.448;18.904;2022-10-16T15:51:28;14.60;;;10.18;;
57067;SDS011;43391;47.448;18.904;2022-10-16T15:53:58;13.93;;;11.55;;
57067;SDS011;43391;47.448;18.904;2022-10-16T15:56:24;20.23;;;13.95;;
57067;SDS011;43391;47.448;18.904;2022-10-16T15:58:51;16.67;;;13.68;;
57067;SDS011;43391;47.448;18.904;2022-10-16T16:01:17;22.70;;;15.48;;
57067;SDS011;43391;47.448;18.904;2022-10-16T16:03:42;33.83;;;22.60;;
57067;SDS011;43391;47.448;18.904;2022-10-16T16:06:10;26.35;;;19.38;;